Terminal Aerodrome Forecast
Issued by NWS

Home | Current Version | Previous Version | Text Only | Print | Product List | Glossary On
Versions: 1 2 3 4 5 6 7 8 9 10 11 12 13 14 15 16 17 18 19 20 21 22 23
000
FTUS44 KOUN 301736
TAFPNC
TAF
KPNC 301736Z 3018/0118 18015G25KT P6SM SCT040 SCT090
     FM010100 15010KT P6SM BKN080 PROB30 0106/0112 4SM -TSRA
      BKN060CB OVC080
     FM011400 18013G20KT P6SM BKN080=

USA.gov is the U.S. government's official web portal to all federal, state and local government web resources and services.